sensor_id;sensor_type;location;lat;lon;timestamp;temperature;humidity
62998;DHT22;55949;52.590;7.330;2023-10-08T00:00:50;16.90;99.90
62998;DHT22;55949;52.590;7.330;2023-10-08T00:01:54;16.60;99.90
62998;DHT22;55949;52.590;7.330;2023-10-08T00:02:57;16.40;99.90
62998;DHT22;55949;52.590;7.330;2023-10-08T00:03:58;16.40;99.90
62998;DHT22;55949;52.590;7.330;2023-10-08T00:05:01;16.20;99.90
62998;DHT22;55949;52.590;7.330;2023-10-08T00:06:03;16.10;99.90
62998;DHT22;55949;52.590;7.330;2023-10-08T00:07:07;16.00;99.90
62998;DHT22;55949;52.590;7.330;2023-10-08T00:08:08;15.90;99.90
62998;DHT22;55949;52.590;7.330;2023-10-08T00:09:09;15.80;99.90
62998;DHT22;55949;52.590;7.330;2023-10-08T00:10:11;15.70;99.90
62998;DHT22;55949;52.590;7.330;2023-10-08T00:11:14;15.50;99.90
62998;DHT22;55949;52.590;7.330;2023-10-08T00:12:16;15.60;99.90
62998;DHT22;55949;52.590;7.330;2023-10-08T00:13:17;15.70;99.90
62998;DHT22;55949;52.590;7.330;2023-10-08T00:14:18;15.70;99.90
62998;DHT22;55949;52.590;7.330;2023-10-08T00:15:21;15.70;99.90
62998;DHT22;55949;52.590;7.330;2023-10-08T00:16:25;15.80;99.90
62998;DHT22;55949;52.590;7.330;2023-10-08T00:17:29;15.90;99.90
62998;DHT22;55949;52.590;7.330;2023-10-08T00:18:31;16.00;99.90
62998;DHT22;55949;52.590;7.330;2023-10-08T00:19:33;16.00;99.90
62998;DHT22;55949;52.590;7.330;2023-10-08T00:20:36;16.10;99.90
62998;DHT22;55949;52.590;7.330;2023-10-08T00:21:47;16.00;99.90
62998;DHT22;55949;52.590;7.330;2023-10-08T00:22:49;15.90;99.90
62998;DHT22;55949;52.590;7.330;2023-10-08T00:23:50;15.90;99.90
62998;DHT22;55949;52.590;7.330;2023-10-08T00:24:53;15.90;99.90
62998;DHT22;55949;52.590;7.330;2023-10-08T00:25:58;15.90;99.90
62998;DHT22;55949;52.590;7.330;2023-10-08T00:27:04;15.90;99.90
62998;DHT22;55949;52.590;7.330;2023-10-08T00:28:08;16.00;99.90
62998;DHT22;55949;52.590;7.330;2023-10-08T00:29:12;16.00;99.90
62998;DHT22;55949;52.590;7.330;2023-10-08T00:30:16;16.10;99.90
62998;DHT22;55949;52.590;7.330;2023-10-08T00:31:19;16.00;99.90
62998;DHT22;55949;52.590;7.330;2023-10-08T00:32:24;15.90;99.90
62998;DHT22;55949;52.590;7.330;2023-10-08T00:33:24;15.80;99.90
62998;DHT22;55949;52.590;7.330;2023-10-08T00:34:25;15.60;99.90
62998;DHT22;55949;52.590;7.330;2023-10-08T00:35:29;16.00;99.90
62998;DHT22;55949;52.590;7.330;2023-10-08T00:36:30;16.10;99.90
62998;DHT22;55949;52.590;7.330;2023-10-08T00:37:31;16.20;99.90
62998;DHT22;55949;52.590;7.330;2023-10-08T00:38:31;16.10;99.90
62998;DHT22;55949;52.590;7.330;2023-10-08T00:39:32;16.20;99.90
62998;DHT22;55949;52.590;7.330;2023-10-08T00:40:38;16.30;99.90
62998;DHT22;55949;52.590;7.330;2023-10-08T00:41:41;16.20;99.90
62998;DHT22;55949;52.590;7.330;2023-10-08T00:42:43;16.20;99.90
62998;DHT22;55949;52.590;7.330;2023-10-08T00:43:46;16.30;99.90
62998;DHT22;55949;52.590;7.330;2023-10-08T00:44:47;16.40;99.90
62998;DHT22;55949;52.590;7.330;2023-10-08T00:45:48;16.20;99.90
62998;DHT22;55949;52.590;7.330;2023-10-08T00:46:50;16.20;99.90
62998;DHT22;55949;52.590;7.330;2023-10-08T00:47:51;16.40;99.90
62998;DHT22;55949;52.590;7.330;2023-10-08T00:48:57;16.60;99.90
62998;DHT22;55949;52.590;7.330;2023-10-08T00:49:59;16.50;99.90
62998;DHT22;55949;52.590;7.330;2023-10-08T00:51:08;16.40;99.90
62998;DHT22;55949;52.590;7.330;2023-10-08T00:52:38;16.50;99.90
62998;DHT22;55949;52.590;7.330;2023-10-08T00:53:42;16.60;99.90
62998;DHT22;55949;52.590;7.330;2023-10-08T00:54:44;16.70;99.90
62998;DHT22;55949;52.590;7.330;2023-10-08T00:56:02;16.60;99.90
62998;DHT22;55949;52.590;7.330;2023-10-08T00:57:07;16.50;99.90
62998;DHT22;55949;52.590;7.330;2023-10-08T00:58:08;16.40;99.90
62998;DHT22;55949;52.590;7.330;2023-10-08T00:59:09;16.30;99.90
62998;DHT22;55949;52.590;7.330;2023-10-08T01:00:15;16.30;99.90
62998;DHT22;55949;52.590;7.330;2023-10-08T01:01:22;16.30;99.90
62998;DHT22;55949;52.590;7.330;2023-10-08T01:02:31;16.20;99.90
62998;DHT22;55949;52.590;7.330;2023-10-08T01:03:49;16.00;99.90
62998;DHT22;55949;52.590;7.330;2023-10-08T01:04:50;16.00;99.90
62998;DHT22;55949;52.590;7.330;2023-10-08T01:05:51;15.90;99.90
62998;DHT22;55949;52.590;7.330;2023-10-08T01:06:54;15.90;99.90
62998;DHT22;55949;52.590;7.330;2023-10-08T01:07:59;16.00;99.90
62998;DHT22;55949;52.590;7.330;2023-10-08T01:09:00;16.00;99.90
62998;DHT22;55949;52.590;7.330;2023-10-08T01:10:17;15.90;99.90
62998;DHT22;55949;52.590;7.330;2023-10-08T01:11:23;16.00;99.90
62998;DHT22;55949;52.590;7.330;2023-10-08T01:12:53;16.20;99.90
62998;DHT22;55949;52.590;7.330;2023-10-08T01:13:56;16.30;99.90
62998;DHT22;55949;52.590;7.330;2023-10-08T01:15:02;16.30;99.90
62998;DHT22;55949;52.590;7.330;2023-10-08T01:16:22;16.20;99.90
62998;DHT22;55949;52.590;7.330;2023-10-08T01:17:24;16.00;99.90
62998;DHT22;55949;52.590;7.330;2023-10-08T01:18:26;16.00;99.90
62998;DHT22;55949;52.590;7.330;2023-10-08T01:19:32;16.20;99.90
62998;DHT22;55949;52.590;7.330;2023-10-08T01:20:36;16.30;99.90
62998;DHT22;55949;52.590;7.330;2023-10-08T01:21:36;16.50;99.90
62998;DHT22;55949;52.590;7.330;2023-10-08T01:22:40;16.40;99.90
62998;DHT22;55949;52.590;7.330;2023-10-08T01:23:41;16.20;99.90
62998;DHT22;55949;52.590;7.330;2023-10-08T01:24:43;16.30;99.90
62998;DHT22;55949;52.590;7.330;2023-10-08T01:25:44;16.50;99.90
62998;DHT22;55949;52.590;7.330;2023-10-08T01:27:02;16.60;99.90
62998;DHT22;55949;52.590;7.330;2023-10-08T01:28:06;16.70;99.90
62998;DHT22;55949;52.590;7.330;2023-10-08T01:29:14;16.40;99.90
62998;DHT22;55949;52.590;7.330;2023-10-08T01:30:21;16.30;99.90
62998;DHT22;55949;52.590;7.330;2023-10-08T01:31:21;16.60;99.90
62998;DHT22;55949;52.590;7.330;2023-10-08T01:32:22;16.60;99.90
62998;DHT22;55949;52.590;7.330;2023-10-08T01:33:23;16.60;99.90
62998;DHT22;55949;52.590;7.330;2023-10-08T01:34:28;16.60;99.90
62998;DHT22;55949;52.590;7.330;2023-10-08T01:35:31;16.20;99.90
62998;DHT22;55949;52.590;7.330;2023-10-08T01:36:32;16.50;99.90
62998;DHT22;55949;52.590;7.330;2023-10-08T01:37:33;16.60;99.90
62998;DHT22;55949;52.590;7.330;2023-10-08T01:38:34;16.60;99.90
62998;DHT22;55949;52.590;7.330;2023-10-08T01:39:37;16.50;99.90
62998;DHT22;55949;52.590;7.330;2023-10-08T01:40:43;16.70;99.90
62998;DHT22;55949;52.590;7.330;2023-10-08T01:41:44;16.30;99.90
62998;DHT22;55949;52.590;7.330;2023-10-08T01:42:45;16.20;99.90
62998;DHT22;55949;52.590;7.330;2023-10-08T01:43:46;16.30;99.90
62998;DHT22;55949;52.590;7.330;2023-10-08T01:44:48;16.30;99.90
62998;DHT22;55949;52.590;7.330;2023-10-08T01:45:49;16.50;99.90
62998;DHT22;55949;52.590;7.330;2023-10-08T01:46:52;16.50;99.90
62998;DHT22;55949;52.590;7.330;2023-10-08T01:47:53;16.50;99.90
62998;DHT22;55949;52.590;7.330;2023-10-08T01:48:55;16.50;99.90
62998;DHT22;55949;52.590;7.330;2023-10-08T01:50:15;16.70;99.90
62998;DHT22;55949;52.590;7.330;2023-10-08T01:51:21;16.60;99.90
62998;DHT22;55949;52.590;7.330;2023-10-08T01:52:26;16.60;99.90
62998;DHT22;55949;52.590;7.330;2023-10-08T01:53:29;16.50;99.90
62998;DHT22;55949;52.590;7.330;2023-10-08T01:54:31;16.50;99.90
62998;DHT22;55949;52.590;7.330;2023-10-08T01:55:36;16.50;99.90
62998;DHT22;55949;52.590;7.330;2023-10-08T01:56:49;16.20;99.90
62998;DHT22;55949;52.590;7.330;2023-10-08T01:57:50;16.40;99.90
62998;DHT22;55949;52.590;7.330;2023-10-08T01:58:54;16.60;99.90
62998;DHT22;55949;52.590;7.330;2023-10-08T01:59:56;16.80;99.90
62998;DHT22;55949;52.590;7.330;2023-10-08T02:00:56;16.70;99.90
62998;DHT22;55949;52.590;7.330;2023-10-08T02:02:00;16.80;99.90
62998;DHT22;55949;52.590;7.330;2023-10-08T02:03:02;16.80;99.90
62998;DHT22;55949;52.590;7.330;2023-10-08T02:04:06;16.80;99.90
62998;DHT22;55949;52.590;7.330;2023-10-08T02:05:12;16.70;99.90
62998;DHT22;55949;52.590;7.330;2023-10-08T02:06:15;16.70;99.90
62998;DHT22;55949;52.590;7.330;2023-10-08T02:07:16;16.70;99.90
62998;DHT22;55949;52.590;7.330;2023-10-08T02:08:16;16.80;99.90
62998;DHT22;55949;52.590;7.330;2023-10-08T02:09:17;16.90;99.90
62998;DHT22;55949;52.590;7.330;2023-10-08T02:10:19;16.60;99.90
62998;DHT22;55949;52.590;7.330;2023-10-08T02:11:22;16.50;99.90
62998;DHT22;55949;52.590;7.330;2023-10-08T02:12:24;16.50;99.90
62998;DHT22;55949;52.590;7.330;2023-10-08T02:13:25;16.70;99.90
62998;DHT22;55949;52.590;7.330;2023-10-08T02:14:26;16.80;99.90
62998;DHT22;55949;52.590;7.330;2023-10-08T02:15:30;16.70;99.90
62998;DHT22;55949;52.590;7.330;2023-10-08T02:16:31;16.70;99.90
62998;DHT22;55949;52.590;7.330;2023-10-08T02:17:34;16.70;99.90
62998;DHT22;55949;52.590;7.330;2023-10-08T02:18:35;16.80;99.90
62998;DHT22;55949;52.590;7.330;2023-10-08T02:19:36;16.80;99.90
62998;DHT22;55949;52.590;7.330;2023-10-08T02:20:39;16.70;99.90
62998;DHT22;55949;52.590;7.330;2023-10-08T02:21:40;16.70;99.90
62998;DHT22;55949;52.590;7.330;2023-10-08T02:22:41;16.50;99.90
62998;DHT22;55949;52.590;7.330;2023-10-08T02:23:41;16.40;99.90
62998;DHT22;55949;52.590;7.330;2023-10-08T02:24:44;16.60;99.90
62998;DHT22;55949;52.590;7.330;2023-10-08T02:25:44;16.40;99.90
62998;DHT22;55949;52.590;7.330;2023-10-08T02:26:45;16.30;99.90
62998;DHT22;55949;52.590;7.330;2023-10-08T02:27:45;16.20;99.90
62998;DHT22;55949;52.590;7.330;2023-10-08T02:28:47;16.30;99.90
62998;DHT22;55949;52.590;7.330;2023-10-08T02:29:49;15.90;99.90
62998;DHT22;55949;52.590;7.330;2023-10-08T02:30:50;16.10;99.90
62998;DHT22;55949;52.590;7.330;2023-10-08T02:31:51;16.10;99.90
62998;DHT22;55949;52.590;7.330;2023-10-08T02:32:54;16.30;99.90
62998;DHT22;55949;52.590;7.330;2023-10-08T02:33:55;16.30;99.90
62998;DHT22;55949;52.590;7.330;2023-10-08T02:34:55;16.30;99.90
62998;DHT22;55949;52.590;7.330;2023-10-08T02:35:57;16.40;99.90
62998;DHT22;55949;52.590;7.330;2023-10-08T02:36:58;16.70;99.90
62998;DHT22;55949;52.590;7.330;2023-10-08T02:38:00;16.90;99.90
62998;DHT22;55949;52.590;7.330;2023-10-08T02:39:01;16.90;99.90
62998;DHT22;55949;52.590;7.330;2023-10-08T02:40:09;17.00;99.90
62998;DHT22;55949;52.590;7.330;2023-10-08T02:41:30;16.90;99.90
62998;DHT22;55949;52.590;7.330;2023-10-08T02:42:32;16.90;99.90
62998;DHT22;55949;52.590;7.330;2023-10-08T02:43:33;16.90;99.90
62998;DHT22;55949;52.590;7.330;2023-10-08T02:44:42;16.70;99.90
62998;DHT22;55949;52.590;7.330;2023-10-08T02:45:44;16.80;99.90
62998;DHT22;55949;52.590;7.330;2023-10-08T02:46:50;16.80;99.90
62998;DHT22;55949;52.590;7.330;2023-10-08T02:47:51;16.80;99.90
62998;DHT22;55949;52.590;7.330;2023-10-08T02:48:53;17.00;99.90
62998;DHT22;55949;52.590;7.330;2023-10-08T02:49:53;17.10;99.90
62998;DHT22;55949;52.590;7.330;2023-10-08T02:50:54;17.20;99.90
62998;DHT22;55949;52.590;7.330;2023-10-08T02:51:55;16.90;99.90
62998;DHT22;55949;52.590;7.330;2023-10-08T02:52:55;16.80;99.90
62998;DHT22;55949;52.590;7.330;2023-10-08T02:54:03;16.80;99.90
62998;DHT22;55949;52.590;7.330;2023-10-08T02:55:06;16.60;99.90
62998;DHT22;55949;52.590;7.330;2023-10-08T02:56:18;16.70;99.90
62998;DHT22;55949;52.590;7.330;2023-10-08T02:57:19;16.50;99.90
62998;DHT22;55949;52.590;7.330;2023-10-08T02:58:22;16.50;99.90
62998;DHT22;55949;52.590;7.330;2023-10-08T02:59:31;16.50;99.90
62998;DHT22;55949;52.590;7.330;2023-10-08T03:00:46;16.60;99.90
62998;DHT22;55949;52.590;7.330;2023-10-08T03:01:50;16.80;99.90
62998;DHT22;55949;52.590;7.330;2023-10-08T03:02:58;17.00;99.90
62998;DHT22;55949;52.590;7.330;2023-10-08T03:04:02;16.70;99.90
62998;DHT22;55949;52.590;7.330;2023-10-08T03:05:09;16.80;99.90
62998;DHT22;55949;52.590;7.330;2023-10-08T03:06:13;17.00;99.90
62998;DHT22;55949;52.590;7.330;2023-10-08T03:07:15;17.10;99.90
62998;DHT22;55949;52.590;7.330;2023-10-08T03:08:22;17.10;99.90
62998;DHT22;55949;52.590;7.330;2023-10-08T03:09:23;17.10;99.90
62998;DHT22;55949;52.590;7.330;2023-10-08T03:10:26;17.20;99.90
62998;DHT22;55949;52.590;7.330;2023-10-08T03:11:33;17.30;99.90
62998;DHT22;55949;52.590;7.330;2023-10-08T03:12:36;17.40;99.90
62998;DHT22;55949;52.590;7.330;2023-10-08T03:13:36;17.30;99.90
62998;DHT22;55949;52.590;7.330;2023-10-08T03:14:39;17.10;99.90
62998;DHT22;55949;52.590;7.330;2023-10-08T03:15:50;17.00;99.90
62998;DHT22;55949;52.590;7.330;2023-10-08T03:17:08;16.70;99.90
62998;DHT22;55949;52.590;7.330;2023-10-08T03:18:09;16.60;99.90
62998;DHT22;55949;52.590;7.330;2023-10-08T03:19:10;16.60;99.90
62998;DHT22;55949;52.590;7.330;2023-10-08T03:20:11;16.70;99.90
62998;DHT22;55949;52.590;7.330;2023-10-08T03:21:31;16.90;99.90
62998;DHT22;55949;52.590;7.330;2023-10-08T03:22:37;16.80;99.90
62998;DHT22;55949;52.590;7.330;2023-10-08T03:23:38;16.80;99.90
62998;DHT22;55949;52.590;7.330;2023-10-08T03:24:44;16.70;99.90
62998;DHT22;55949;52.590;7.330;2023-10-08T03:25:52;16.30;99.90
62998;DHT22;55949;52.590;7.330;2023-10-08T03:27:02;16.40;99.90
62998;DHT22;55949;52.590;7.330;2023-10-08T03:28:30;16.20;99.90
62998;DHT22;55949;52.590;7.330;2023-10-08T03:29:35;16.20;99.90
62998;DHT22;55949;52.590;7.330;2023-10-08T03:30:45;16.40;99.90
62998;DHT22;55949;52.590;7.330;2023-10-08T03:31:50;16.40;99.90
62998;DHT22;55949;52.590;7.330;2023-10-08T03:32:50;16.50;99.90
62998;DHT22;55949;52.590;7.330;2023-10-08T03:33:55;16.50;99.90
62998;DHT22;55949;52.590;7.330;2023-10-08T03:34:56;16.50;99.90
62998;DHT22;55949;52.590;7.330;2023-10-08T03:36:06;16.50;99.90
62998;DHT22;55949;52.590;7.330;2023-10-08T03:37:16;16.80;99.90
62998;DHT22;55949;52.590;7.330;2023-10-08T03:38:21;16.90;99.90
62998;DHT22;55949;52.590;7.330;2023-10-08T03:39:28;16.90;99.90
62998;DHT22;55949;52.590;7.330;2023-10-08T03:40:49;16.60;99.90
62998;DHT22;55949;52.590;7.330;2023-10-08T03:41:51;16.40;99.90
62998;DHT22;55949;52.590;7.330;2023-10-08T03:43:06;16.40;99.90
62998;DHT22;55949;52.590;7.330;2023-10-08T03:44:15;16.60;99.90
62998;DHT22;55949;52.590;7.330;2023-10-08T03:45:17;16.60;99.90
62998;DHT22;55949;52.590;7.330;2023-10-08T03:46:38;16.70;99.90
62998;DHT22;55949;52.590;7.330;2023-10-08T03:47:47;16.80;99.90
62998;DHT22;55949;52.590;7.330;2023-10-08T03:48:54;16.80;99.90
62998;DHT22;55949;52.590;7.330;2023-10-08T03:49:57;16.80;99.90
62998;DHT22;55949;52.590;7.330;2023-10-08T03:51:06;16.70;99.90
62998;DHT22;55949;52.590;7.330;2023-10-08T03:52:07;16.70;99.90
62998;DHT22;55949;52.590;7.330;2023-10-08T03:53:08;16.70;99.90
62998;DHT22;55949;52.590;7.330;2023-10-08T03:54:12;16.80;99.90
62998;DHT22;55949;52.590;7.330;2023-10-08T03:55:42;16.80;99.90
62998;DHT22;55949;52.590;7.330;2023-10-08T03:56:43;17.10;99.90
62998;DHT22;55949;52.590;7.330;2023-10-08T03:57:48;17.00;99.90
62998;DHT22;55949;52.590;7.330;2023-10-08T03:59:00;16.70;99.90
62998;DHT22;55949;52.590;7.330;2023-10-08T04:00:01;16.70;99.90
62998;DHT22;55949;52.590;7.330;2023-10-08T04:01:07;16.60;99.90
62998;DHT22;55949;52.590;7.330;2023-10-08T04:02:11;16.60;99.90
62998;DHT22;55949;52.590;7.330;2023-10-08T04:03:22;16.50;99.90
62998;DHT22;55949;52.590;7.330;2023-10-08T04:04:43;16.50;99.90
62998;DHT22;55949;52.590;7.330;2023-10-08T04:05:57;16.20;99.90
62998;DHT22;55949;52.590;7.330;2023-10-08T04:07:21;16.00;99.90
62998;DHT22;55949;52.590;7.330;2023-10-08T04:08:26;16.10;99.90
62998;DHT22;55949;52.590;7.330;2023-10-08T04:09:57;16.30;99.90
62998;DHT22;55949;52.590;7.330;2023-10-08T04:11:10;16.70;99.90
62998;DHT22;55949;52.590;7.330;2023-10-08T04:12:40;16.50;99.90
62998;DHT22;55949;52.590;7.330;2023-10-08T04:13:44;16.70;99.90
62998;DHT22;55949;52.590;7.330;2023-10-08T04:14:49;16.40;99.90
62998;DHT22;55949;52.590;7.330;2023-10-08T04:15:49;16.50;99.90
62998;DHT22;55949;52.590;7.330;2023-10-08T04:16:51;16.60;99.90
62998;DHT22;55949;52.590;7.330;2023-10-08T04:17:52;16.70;99.90
62998;DHT22;55949;52.590;7.330;2023-10-08T04:18:53;16.60;99.90
62998;DHT22;55949;52.590;7.330;2023-10-08T04:19:55;16.60;99.90
62998;DHT22;55949;52.590;7.330;2023-10-08T04:20:58;16.70;99.90
62998;DHT22;55949;52.590;7.330;2023-10-08T04:22:05;16.50;99.90
62998;DHT22;55949;52.590;7.330;2023-10-08T04:23:15;16.40;99.90
62998;DHT22;55949;52.590;7.330;2023-10-08T04:24:19;16.60;99.90
62998;DHT22;55949;52.590;7.330;2023-10-08T04:25:20;16.80;99.90
62998;DHT22;55949;52.590;7.330;2023-10-08T04:26:21;16.60;99.90
62998;DHT22;55949;52.590;7.330;2023-10-08T04:27:24;16.70;99.90
62998;DHT22;55949;52.590;7.330;2023-10-08T04:28:26;16.50;99.90
62998;DHT22;55949;52.590;7.330;2023-10-08T04:29:29;16.50;99.90
62998;DHT22;55949;52.590;7.330;2023-10-08T04:30:33;16.50;99.90
62998;DHT22;55949;52.590;7.330;2023-10-08T04:31:34;16.40;99.90
62998;DHT22;55949;52.590;7.330;2023-10-08T04:32:43;16.30;99.90
62998;DHT22;55949;52.590;7.330;2023-10-08T04:33:44;16.60;99.90
62998;DHT22;55949;52.590;7.330;2023-10-08T04:34:47;16.60;99.90
62998;DHT22;55949;52.590;7.330;2023-10-08T04:35:50;16.30;99.90
62998;DHT22;55949;52.590;7.330;2023-10-08T04:36:56;16.30;99.90
62998;DHT22;55949;52.590;7.330;2023-10-08T04:38:01;16.20;99.90
62998;DHT22;55949;52.590;7.330;2023-10-08T04:39:04;16.20;99.90
62998;DHT22;55949;52.590;7.330;2023-10-08T04:40:14;16.30;99.90
62998;DHT22;55949;52.590;7.330;2023-10-08T04:41:16;16.20;99.90
62998;DHT22;55949;52.590;7.330;2023-10-08T04:42:20;16.20;99.90
62998;DHT22;55949;52.590;7.330;2023-10-08T04:43:26;16.10;99.90
62998;DHT22;55949;52.590;7.330;2023-10-08T04:44:28;16.20;99.90
62998;DHT22;55949;52.590;7.330;2023-10-08T04:45:32;16.30;99.90
62998;DHT22;55949;52.590;7.330;2023-10-08T04:46:34;16.40;99.90
62998;DHT22;55949;52.590;7.330;2023-10-08T04:47:38;16.50;99.90
62998;DHT22;55949;52.590;7.330;2023-10-08T04:48:42;16.50;99.90
62998;DHT22;55949;52.590;7.330;2023-10-08T04:49:44;16.70;99.90
62998;DHT22;55949;52.590;7.330;2023-10-08T04:50:49;16.60;99.90
62998;DHT22;55949;52.590;7.330;2023-10-08T04:52:03;16.60;99.90
62998;DHT22;55949;52.590;7.330;2023-10-08T04:53:09;16.50;99.90
62998;DHT22;55949;52.590;7.330;2023-10-08T04:54:13;16.40;99.90
62998;DHT22;55949;52.590;7.330;2023-10-08T04:55:17;16.60;99.90
62998;DHT22;55949;52.590;7.330;2023-10-08T04:56:20;16.70;99.90
62998;DHT22;55949;52.590;7.330;2023-10-08T04:57:23;16.70;99.90
62998;DHT22;55949;52.590;7.330;2023-10-08T04:58:26;16.80;99.90
62998;DHT22;55949;52.590;7.330;2023-10-08T04:59:34;16.80;99.90
62998;DHT22;55949;52.590;7.330;2023-10-08T05:00:34;16.60;99.90
62998;DHT22;55949;52.590;7.330;2023-10-08T05:02:05;16.50;99.90
62998;DHT22;55949;52.590;7.330;2023-10-08T05:03:24;16.50;99.90
62998;DHT22;55949;52.590;7.330;2023-10-08T05:04:32;16.50;99.90
62998;DHT22;55949;52.590;7.330;2023-10-08T05:05:46;16.70;99.90
62998;DHT22;55949;52.590;7.330;2023-10-08T05:07:12;16.70;99.90
62998;DHT22;55949;52.590;7.330;2023-10-08T05:08:42;16.80;99.90
62998;DHT22;55949;52.590;7.330;2023-10-08T05:09:58;16.60;99.90
62998;DHT22;55949;52.590;7.330;2023-10-08T05:11:08;16.60;99.90
62998;DHT22;55949;52.590;7.330;2023-10-08T05:12:27;16.60;99.90
62998;DHT22;55949;52.590;7.330;2023-10-08T05:14:01;16.30;99.90
62998;DHT22;55949;52.590;7.330;2023-10-08T05:15:07;16.20;99.90
62998;DHT22;55949;52.590;7.330;2023-10-08T05:16:16;16.30;99.90
62998;DHT22;55949;52.590;7.330;2023-10-08T05:17:36;16.40;99.90
62998;DHT22;55949;52.590;7.330;2023-10-08T05:18:56;16.40;99.90
62998;DHT22;55949;52.590;7.330;2023-10-08T05:20:25;16.50;99.90
62998;DHT22;55949;52.590;7.330;2023-10-08T05:21:59;16.70;99.90
62998;DHT22;55949;52.590;7.330;2023-10-08T05:23:19;16.40;99.90
62998;DHT22;55949;52.590;7.330;2023-10-08T05:24:25;16.50;99.90
62998;DHT22;55949;52.590;7.330;2023-10-08T05:25:42;16.40;99.90
62998;DHT22;55949;52.590;7.330;2023-10-08T05:26:58;16.50;99.90
62998;DHT22;55949;52.590;7.330;2023-10-08T05:28:21;16.60;99.90
62998;DHT22;55949;52.590;7.330;2023-10-08T05:29:25;16.80;99.90
62998;DHT22;55949;52.590;7.330;2023-10-08T05:30:40;16.80;99.90
62998;DHT22;55949;52.590;7.330;2023-10-08T05:31:53;17.00;99.90
62998;DHT22;55949;52.590;7.330;2023-10-08T05:33:14;17.10;99.90
62998;DHT22;55949;52.590;7.330;2023-10-08T05:34:14;16.80;99.90
62998;DHT22;55949;52.590;7.330;2023-10-08T05:35:17;16.90;99.90
62998;DHT22;55949;52.590;7.330;2023-10-08T05:36:36;16.70;99.90
62998;DHT22;55949;52.590;7.330;2023-10-08T05:37:58;16.90;99.90
62998;DHT22;55949;52.590;7.330;2023-10-08T05:39:13;16.80;99.90
62998;DHT22;55949;52.590;7.330;2023-10-08T05:40:51;16.50;99.90
62998;DHT22;55949;52.590;7.330;2023-10-08T05:42:05;16.50;99.90
62998;DHT22;55949;52.590;7.330;2023-10-08T05:43:38;16.40;99.90
62998;DHT22;55949;52.590;7.330;2023-10-08T05:44:43;16.30;99.90
62998;DHT22;55949;52.590;7.330;2023-10-08T05:46:11;16.20;99.90
62998;DHT22;55949;52.590;7.330;2023-10-08T05:47:24;16.30;99.90
62998;DHT22;55949;52.590;7.330;2023-10-08T05:48:33;16.10;99.90
62998;DHT22;55949;52.590;7.330;2023-10-08T05:49:45;16.10;99.90
62998;DHT22;55949;52.590;7.330;2023-10-08T05:51:14;16.00;99.90
62998;DHT22;55949;52.590;7.330;2023-10-08T05:52:34;16.30;99.90
62998;DHT22;55949;52.590;7.330;2023-10-08T05:54:01;16.50;99.90
62998;DHT22;55949;52.590;7.330;2023-10-08T05:55:11;16.30;99.90
62998;DHT22;55949;52.590;7.330;2023-10-08T05:56:26;16.10;99.90
62998;DHT22;55949;52.590;7.330;2023-10-08T05:57:42;16.00;99.90
62998;DHT22;55949;52.590;7.330;2023-10-08T05:58:47;16.30;99.90
62998;DHT22;55949;52.590;7.330;2023-10-08T06:00:00;16.40;99.90
62998;DHT22;55949;52.590;7.330;2023-10-08T06:01:02;16.20;99.90
62998;DHT22;55949;52.590;7.330;2023-10-08T06:02:06;16.10;99.90
62998;DHT22;55949;52.590;7.330;2023-10-08T06:03:27;15.90;99.90
62998;DHT22;55949;52.590;7.330;2023-10-08T06:04:37;16.00;99.90
62998;DHT22;55949;52.590;7.330;2023-10-08T06:05:53;16.30;99.90
62998;DHT22;55949;52.590;7.330;2023-10-08T06:07:14;16.40;99.90
62998;DHT22;55949;52.590;7.330;2023-10-08T06:08:23;16.20;99.90
62998;DHT22;55949;52.590;7.330;2023-10-08T06:09:44;16.00;99.90
62998;DHT22;55949;52.590;7.330;2023-10-08T06:11:02;16.00;99.90
62998;DHT22;55949;52.590;7.330;2023-10-08T06:12:07;15.90;99.90
62998;DHT22;55949;52.590;7.330;2023-10-08T06:13:14;15.90;99.90
62998;DHT22;55949;52.590;7.330;2023-10-08T06:14:17;16.00;99.90
62998;DHT22;55949;52.590;7.330;2023-10-08T06:15:28;15.90;99.90
62998;DHT22;55949;52.590;7.330;2023-10-08T06:17:01;16.10;99.90
62998;DHT22;55949;52.590;7.330;2023-10-08T06:19:28;16.60;99.90
62998;DHT22;55949;52.590;7.330;2023-10-08T06:20:28;16.70;99.90
62998;DHT22;55949;52.590;7.330;2023-10-08T06:21:29;16.90;99.90
62998;DHT22;55949;52.590;7.330;2023-10-08T06:22:30;17.00;99.90
62998;DHT22;55949;52.590;7.330;2023-10-08T06:23:31;17.10;99.90
62998;DHT22;55949;52.590;7.330;2023-10-08T06:24:35;17.10;99.90
62998;DHT22;55949;52.590;7.330;2023-10-08T06:25:39;17.20;99.90
62998;DHT22;55949;52.590;7.330;2023-10-08T06:26:46;17.10;99.90
62998;DHT22;55949;52.590;7.330;2023-10-08T06:27:50;16.80;99.90
62998;DHT22;55949;52.590;7.330;2023-10-08T06:28:58;16.80;99.90
62998;DHT22;55949;52.590;7.330;2023-10-08T06:29:59;17.00;99.90
62998;DHT22;55949;52.590;7.330;2023-10-08T06:31:00;17.20;99.90
62998;DHT22;55949;52.590;7.330;2023-10-08T06:32:01;17.50;99.90
62998;DHT22;55949;52.590;7.330;2023-10-08T06:33:05;17.60;99.90
62998;DHT22;55949;52.590;7.330;2023-10-08T06:34:05;17.50;99.90
62998;DHT22;55949;52.590;7.330;2023-10-08T06:35:08;17.50;99.90
62998;DHT22;55949;52.590;7.330;2023-10-08T06:36:17;17.40;99.90
62998;DHT22;55949;52.590;7.330;2023-10-08T06:37:23;17.50;99.90
62998;DHT22;55949;52.590;7.330;2023-10-08T06:38:24;17.40;99.90
62998;DHT22;55949;52.590;7.330;2023-10-08T06:39:27;17.40;99.90
62998;DHT22;55949;52.590;7.330;2023-10-08T06:40:35;17.50;99.90
62998;DHT22;55949;52.590;7.330;2023-10-08T06:41:38;17.60;99.90
62998;DHT22;55949;52.590;7.330;2023-10-08T06:42:39;17.70;99.90
62998;DHT22;55949;52.590;7.330;2023-10-08T06:43:44;17.80;99.90
62998;DHT22;55949;52.590;7.330;2023-10-08T06:44:48;17.90;99.90
62998;DHT22;55949;52.590;7.330;2023-10-08T06:45:50;18.00;99.90
62998;DHT22;55949;52.590;7.330;2023-10-08T06:46:52;18.00;99.90
62998;DHT22;55949;52.590;7.330;2023-10-08T06:47:55;18.10;99.90
62998;DHT22;55949;52.590;7.330;2023-10-08T06:49:01;18.10;99.90
62998;DHT22;55949;52.590;7.330;2023-10-08T06:50:03;18.00;99.90
62998;DHT22;55949;52.590;7.330;2023-10-08T06:51:13;18.00;99.90
62998;DHT22;55949;52.590;7.330;2023-10-08T06:52:13;18.00;99.90
62998;DHT22;55949;52.590;7.330;2023-10-08T06:53:14;18.10;99.90
62998;DHT22;55949;52.590;7.330;2023-10-08T06:54:15;18.10;99.90
62998;DHT22;55949;52.590;7.330;2023-10-08T06:55:18;18.10;99.90
62998;DHT22;55949;52.590;7.330;2023-10-08T06:56:18;17.90;99.90
62998;DHT22;55949;52.590;7.330;2023-10-08T06:57:20;17.60;99.90
62998;DHT22;55949;52.590;7.330;2023-10-08T06:58:24;17.40;99.90
62998;DHT22;55949;52.590;7.330;2023-10-08T06:59:25;17.10;99.90
62998;DHT22;55949;52.590;7.330;2023-10-08T07:00:26;17.20;99.90
62998;DHT22;55949;52.590;7.330;2023-10-08T07:01:59;17.10;99.90